Time,TemperatureF,DewpointF,PressureIn,WindDirection,WindDirectionDegrees,WindSpeedMPH,WindSpeedGustMPH,Humidity,HourlyPrecipIn,Conditions,Clouds,dailyrainin,SolarRadiationWatts/m^2,SoftwareType,DateUTC
2013-09-08 00:03:00,59.8,57.2,29.98,SSW,195,0.0,0.0,91,0.00,,,0.00,0,Wunderground v.1.15,2013-09-08 04:03:00,
2013-09-08 00:13:00,59.6,57.0,29.98,SSW,195,0.0,0.0,91,0.00,,,0.00,0,Wunderground v.1.15,2013-09-08 04:13:00,
2013-09-08 00:23:00,59.4,57.1,29.99,SSW,195,0.0,0.0,92,0.00,,,0.00,0,Wunderground v.1.15,2013-09-08 04:23:00,
2013-09-08 00:33:00,59.3,57.0,29.98,SSW,195,0.0,0.0,92,0.00,,,0.00,0,Wunderground v.1.15,2013-09-08 04:33:00,
2013-09-08 00:43:00,59.0,56.7,29.98,SSW,195,0.0,0.0,92,0.00,,,0.00,0,Wunderground v.1.15,2013-09-08 04:43:00,
2013-09-08 01:03:00,59.0,56.7,29.98,SSW,195,0.0,0.0,92,0.00,,,0.00,0,Wunderground v.1.15,2013-09-08 05:03:00,
2013-09-08 01:13:00,58.7,56.4,29.98,SSW,195,0.0,0.0,92,0.00,,,0.00,0,Wunderground v.1.15,2013-09-08 05:13:00,
2013-09-08 01:23:00,58.6,56.3,29.97,SSW,195,0.0,0.0,92,0.00,,,0.00,0,Wunderground v.1.15,2013-09-08 05:23:00,
2013-09-08 01:33:00,58.5,56.2,29.97,SSW,195,0.0,0.0,92,0.00,,,0.00,0,Wunderground v.1.15,2013-09-08 05:33:00,
2013-09-08 01:43:00,58.4,56.4,29.97,SSW,195,0.0,0.0,93,0.00,,,0.00,0,Wunderground v.1.15,2013-09-08 05:43:00,
2013-09-08 01:53:00,58.2,55.9,29.97,SSW,195,0.0,0.0,92,0.00,,,0.00,0,Wunderground v.1.15,2013-09-08 05:53:00,
2013-09-08 02:03:00,58.0,55.7,29.97,SSW,195,0.0,0.0,92,0.00,,,0.00,0,Wunderground v.1.15,2013-09-08 06:03:00,
2013-09-08 02:13:00,57.7,55.4,29.97,SSW,195,0.0,0.0,92,0.00,,,0.00,0,Wunderground v.1.15,2013-09-08 06:13:00,
2013-09-08 02:23:00,57.5,55.2,29.97,SSW,195,0.0,0.0,92,0.00,,,0.00,0,Wunderground v.1.15,2013-09-08 06:23:00,
2013-09-08 02:33:00,57.4,55.4,29.96,SSW,195,0.0,0.0,93,0.00,,,0.00,0,Wunderground v.1.15,2013-09-08 06:33:00,
2013-09-08 02:43:00,57.3,55.3,29.96,SSW,195,0.0,0.0,93,0.00,,,0.00,0,Wunderground v.1.15,2013-09-08 06:43:00,
2013-09-08 02:53:00,57.1,55.1,29.96,SSW,195,0.0,0.0,93,0.00,,,0.00,0,Wunderground v.1.15,2013-09-08 06:53:00,
2013-09-08 03:03:00,56.9,54.9,29.95,SSW,195,0.0,0.0,93,0.00,,,0.00,0,Wunderground v.1.15,2013-09-08 07:03:00,
2013-09-08 03:13:00,56.7,54.7,29.96,SSW,195,0.0,0.0,93,0.00,,,0.00,0,Wunderground v.1.15,2013-09-08 07:13:00,
2013-09-08 03:23:00,56.6,54.6,29.95,SSW,195,0.0,0.0,93,0.00,,,0.00,0,Wunderground v.1.15,2013-09-08 07:23:00,
2013-09-08 03:33:00,56.6,54.6,29.95,SSW,195,0.0,0.0,93,0.00,,,0.00,0,Wunderground v.1.15,2013-09-08 07:33:00,
2013-09-08 03:43:00,56.6,54.6,29.95,SSW,195,0.0,0.0,93,0.00,,,0.00,0,Wunderground v.1.15,2013-09-08 07:43:00,
2013-09-08 03:53:00,56.5,54.5,29.95,SSW,195,0.0,0.0,93,0.00,,,0.00,0,Wunderground v.1.15,2013-09-08 07:53:00,
2013-09-08 04:03:00,56.5,54.8,29.95,SSW,195,0.0,0.0,94,0.00,,,0.00,0,Wunderground v.1.15,2013-09-08 08:03:00,
2013-09-08 04:13:00,56.4,54.4,29.94,SSW,195,0.0,0.0,93,0.00,,,0.00,0,Wunderground v.1.15,2013-09-08 08:13:00,
2013-09-08 04:23:00,56.3,54.6,29.94,SSW,195,0.0,0.0,94,0.00,,,0.00,0,Wunderground v.1.15,2013-09-08 08:23:00,
2013-09-08 04:33:00,56.3,54.6,29.95,SSW,195,0.0,0.0,94,0.00,,,0.00,0,Wunderground v.1.15,2013-09-08 08:33:00,
2013-09-08 04:43:00,56.3,54.6,29.94,SSW,195,0.0,0.0,94,0.00,,,0.00,0,Wunderground v.1.15,2013-09-08 08:43:00,
2013-09-08 04:53:00,56.4,54.7,29.94,SSW,195,0.0,0.0,94,0.00,,,0.00,0,Wunderground v.1.15,2013-09-08 08:53:00,
2013-09-08 05:03:00,56.8,55.1,29.94,SSW,195,0.0,0.0,94,0.00,,,0.00,0,Wunderground v.1.15,2013-09-08 09:03:00,
2013-09-08 05:13:00,57.2,55.8,29.94,SSW,195,0.0,0.0,95,0.00,,,0.00,0,Wunderground v.1.15,2013-09-08 09:13:00,
2013-09-08 05:23:00,57.3,55.9,29.94,SSW,195,0.0,0.0,95,0.00,,,0.00,0,Wunderground v.1.15,2013-09-08 09:23:00,
2013-09-08 05:33:00,57.5,56.1,29.94,SSW,195,0.0,0.0,95,0.00,,,0.00,0,Wunderground v.1.15,2013-09-08 09:33:00,
2013-09-08 05:43:00,58.0,56.6,29.94,SSW,195,0.0,0.0,95,0.00,,,0.00,0,Wunderground v.1.15,2013-09-08 09:43:00,
2013-09-08 05:53:00,58.5,57.1,29.94,SSW,195,0.0,0.0,95,0.00,,,0.00,0,Wunderground v.1.15,2013-09-08 09:53:00,
2013-09-08 06:03:00,59.0,58.4,29.94,SSW,195,0.0,0.0,98,0.00,,,0.00,0,Wunderground v.1.15,2013-09-08 10:03:00,
2013-09-08 06:13:00,59.0,57.9,29.94,SSW,195,0.0,0.0,96,0.00,,,0.00,0,Wunderground v.1.15,2013-09-08 10:13:00,
2013-09-08 06:23:00,59.2,58.1,29.94,SSW,195,0.0,0.0,96,0.00,,,0.00,0,Wunderground v.1.15,2013-09-08 10:23:00,
2013-09-08 06:33:00,59.6,58.5,29.95,SSW,195,0.0,0.0,96,0.00,,,0.00,0,Wunderground v.1.15,2013-09-08 10:33:00,
2013-09-08 06:43:00,59.9,58.8,29.95,SSW,195,0.0,0.0,96,0.00,,,0.01,0,Wunderground v.1.15,2013-09-08 10:43:00,
2013-09-08 06:53:00,60.2,59.1,29.95,SSW,195,0.0,0.0,96,0.00,,,0.01,0,Wunderground v.1.15,2013-09-08 10:53:00,
2013-09-08 07:03:00,60.4,59.3,29.95,SSW,195,0.0,0.0,96,0.00,,,0.01,0,Wunderground v.1.15,2013-09-08 11:03:00,
2013-09-08 07:13:00,60.4,59.3,29.96,SSW,195,0.0,0.0,96,0.00,,,0.01,0,Wunderground v.1.15,2013-09-08 11:13:00,
2013-09-08 07:23:00,60.4,59.3,29.96,SSW,195,0.0,0.0,96,0.00,,,0.01,7,Wunderground v.1.15,2013-09-08 11:23:00,
2013-09-08 07:33:00,60.5,59.4,29.96,SSW,195,0.0,0.0,96,0.00,,,0.01,12,Wunderground v.1.15,2013-09-08 11:33:00,
2013-09-08 07:43:00,60.6,59.5,29.96,SSW,195,0.0,0.0,96,0.00,,,0.01,16,Wunderground v.1.15,2013-09-08 11:43:00,
2013-09-08 07:53:00,60.6,59.5,29.96,SSW,195,0.0,0.0,96,0.00,,,0.01,18,Wunderground v.1.15,2013-09-08 11:53:00,
2013-09-08 08:03:00,60.7,59.6,29.96,SSW,195,0.0,0.0,96,0.00,,,0.01,26,Wunderground v.1.15,2013-09-08 12:03:00,
2013-09-08 08:13:00,60.7,59.6,29.96,SSW,195,0.0,0.0,96,0.00,,,0.01,37,Wunderground v.1.15,2013-09-08 12:13:00,
2013-09-08 08:23:00,60.9,59.8,29.96,SSW,195,0.0,0.0,96,0.00,,,0.01,47,Wunderground v.1.15,2013-09-08 12:23:00,
2013-09-08 08:33:00,61.3,60.2,29.96,SSW,195,0.0,0.0,96,0.00,,,0.01,56,Wunderground v.1.15,2013-09-08 12:33:00,
2013-09-08 08:43:00,61.8,60.6,29.95,SSW,195,0.0,0.0,96,0.00,,,0.01,46,Wunderground v.1.15,2013-09-08 12:43:00,
2013-09-08 08:53:00,62.3,61.1,29.95,SSW,195,0.0,0.0,96,0.00,,,0.01,84,Wunderground v.1.15,2013-09-08 12:53:00,
2013-09-08 09:03:00,63.2,62.0,29.96,SSW,195,0.0,0.0,96,0.00,,,0.01,56,Wunderground v.1.15,2013-09-08 13:03:00,
2013-09-08 09:13:00,63.4,62.2,29.95,SSW,195,0.0,0.0,96,0.00,,,0.01,74,Wunderground v.1.15,2013-09-08 13:13:00,
2013-09-08 09:23:00,63.8,62.6,29.95,SSW,195,0.0,0.0,96,0.00,,,0.01,77,Wunderground v.1.15,2013-09-08 13:23:00,
2013-09-08 09:33:00,64.2,63.0,29.95,SSW,195,0.0,0.0,96,0.00,,,0.01,297,Wunderground v.1.15,2013-09-08 13:33:00,
2013-09-08 09:43:00,66.2,65.3,29.96,WSW,253,0.0,0.0,97,0.00,,,0.01,504,Wunderground v.1.15,2013-09-08 13:43:00,
2013-09-08 09:53:00,68.0,66.2,29.95,WSW,248,0.0,0.0,94,0.00,,,0.01,186,Wunderground v.1.15,2013-09-08 13:53:00,
2013-09-08 10:03:00,68.8,66.1,29.95,WSW,248,0.0,0.0,91,0.00,,,0.01,410,Wunderground v.1.15,2013-09-08 14:03:00,
2013-09-08 10:13:00,70.3,66.9,29.95,WSW,248,0.0,0.0,89,0.00,,,0.01,439,Wunderground v.1.15,2013-09-08 14:13:00,
2013-09-08 10:23:00,71.5,66.4,29.95,WSW,248,0.0,0.0,84,0.00,,,0.01,308,Wunderground v.1.15,2013-09-08 14:23:00,
2013-09-08 10:33:00,72.5,66.7,29.95,WSW,248,0.0,0.0,82,0.00,,,0.01,703,Wunderground v.1.15,2013-09-08 14:33:00,
2013-09-08 10:43:00,73.9,66.6,29.95,WSW,248,0.0,0.0,78,0.00,,,0.01,779,Wunderground v.1.15,2013-09-08 14:43:00,
2013-09-08 10:53:00,74.9,67.9,29.96,WSW,254,0.0,0.0,79,0.00,,,0.01,937,Wunderground v.1.15,2013-09-08 14:53:00,
2013-09-08 11:03:00,75.4,66.5,29.96,SSE,168,0.0,0.0,74,0.00,,,0.01,223,Wunderground v.1.15,2013-09-08 15:03:00,
2013-09-08 11:13:00,74.3,66.2,29.96,South,191,0.0,0.0,76,0.00,,,0.01,251,Wunderground v.1.15,2013-09-08 15:13:00,
2013-09-08 11:23:00,73.2,67.0,29.96,South,191,0.0,0.0,81,0.00,,,0.01,246,Wunderground v.1.15,2013-09-08 15:23:00,
2013-09-08 11:33:00,73.5,66.9,29.96,South,176,0.0,0.0,80,0.00,,,0.01,770,Wunderground v.1.15,2013-09-08 15:33:00,
2013-09-08 11:43:00,75.7,67.6,29.95,SSW,203,0.0,0.0,76,0.00,,,0.01,823,Wunderground v.1.15,2013-09-08 15:43:00,
2013-09-08 11:53:00,75.9,67.0,29.95,SSW,203,0.0,0.0,74,0.00,,,0.01,207,Wunderground v.1.15,2013-09-08 15:53:00,
2013-09-08 12:03:00,74.7,66.6,29.96,SSW,204,0.0,0.0,76,0.00,,,0.01,142,Wunderground v.1.15,2013-09-08 16:03:00,
2013-09-08 12:13:00,73.7,66.4,29.96,SSW,203,0.0,0.0,78,0.00,,,0.01,285,Wunderground v.1.15,2013-09-08 16:13:00,
2013-09-08 12:23:00,73.1,66.2,29.96,South,190,0.0,0.0,79,0.00,,,0.01,251,Wunderground v.1.15,2013-09-08 16:23:00,
2013-09-08 12:33:00,72.8,66.3,29.96,South,190,0.0,0.0,80,0.00,,,0.01,178,Wunderground v.1.15,2013-09-08 16:33:00,
2013-09-08 12:43:00,72.6,66.1,29.96,South,190,0.0,0.0,80,0.00,,,0.01,90,Wunderground v.1.15,2013-09-08 16:43:00,
2013-09-08 12:53:00,72.4,65.5,29.96,South,190,0.0,0.0,79,0.00,,,0.01,72,Wunderground v.1.15,2013-09-08 16:53:00,
2013-09-08 13:03:00,71.9,65.0,29.96,South,190,0.0,0.0,79,0.00,,,0.01,214,Wunderground v.1.15,2013-09-08 17:03:00,
2013-09-08 13:13:00,73.2,67.7,29.95,South,190,0.0,0.0,83,0.00,,,0.01,988,Wunderground v.1.15,2013-09-08 17:13:00,
2013-09-08 13:23:00,75.3,66.4,29.95,South,190,0.0,0.0,74,0.00,,,0.01,332,Wunderground v.1.15,2013-09-08 17:23:00,
2013-09-08 13:33:00,75.5,65.0,29.95,South,190,0.0,0.0,70,0.00,,,0.01,541,Wunderground v.1.15,2013-09-08 17:33:00,
2013-09-08 13:43:00,76.2,66.5,29.95,South,191,0.0,0.0,72,0.00,,,0.01,236,Wunderground v.1.15,2013-09-08 17:43:00,
2013-09-08 13:53:00,75.5,66.2,29.95,South,191,0.0,0.0,73,0.00,,,0.01,81,Wunderground v.1.15,2013-09-08 17:53:00,
2013-09-08 14:03:00,75.2,66.7,29.95,South,191,0.0,0.0,75,0.00,,,0.01,134,Wunderground v.1.15,2013-09-08 18:03:00,
2013-09-08 14:13:00,73.9,66.6,29.94,South,191,0.0,0.0,78,0.00,,,0.01,204,Wunderground v.1.15,2013-09-08 18:13:00,
2013-09-08 14:23:00,73.3,66.8,29.94,South,191,0.0,0.0,80,0.00,,,0.01,336,Wunderground v.1.15,2013-09-08 18:23:00,
2013-09-08 14:33:00,73.4,64.2,29.94,SE,126,0.0,0.0,73,0.00,,,0.01,274,Wunderground v.1.15,2013-09-08 18:33:00,
2013-09-08 14:43:00,74.1,65.3,29.94,South,170,0.0,0.0,74,0.00,,,0.01,406,Wunderground v.1.15,2013-09-08 18:43:00,
2013-09-08 14:53:00,74.7,65.1,29.93,South,188,0.0,0.0,72,0.00,,,0.01,397,Wunderground v.1.15,2013-09-08 18:53:00,
2013-09-08 15:03:00,74.9,65.3,29.93,South,189,0.0,0.0,72,0.00,,,0.01,345,Wunderground v.1.15,2013-09-08 19:03:00,
2013-09-08 15:13:00,75.2,65.6,29.93,South,186,0.0,0.0,72,0.00,,,0.01,933,Wunderground v.1.15,2013-09-08 19:13:00,
2013-09-08 15:23:00,76.3,66.2,29.92,South,191,0.0,0.0,71,0.00,,,0.01,397,Wunderground v.1.15,2013-09-08 19:23:00,
2013-09-08 15:33:00,76.8,66.3,29.92,SSW,196,0.0,0.0,70,0.00,,,0.01,355,Wunderground v.1.15,2013-09-08 19:33:00,
2013-09-08 15:43:00,76.7,64.5,29.92,SSW,196,0.0,0.0,66,0.00,,,0.01,712,Wunderground v.1.15,2013-09-08 19:43:00,
2013-09-08 15:53:00,77.2,66.2,29.92,SSE,155,0.0,0.0,69,0.00,,,0.01,682,Wunderground v.1.15,2013-09-08 19:53:00,
2013-09-08 16:03:00,76.6,65.2,29.92,SSE,155,0.0,0.0,68,0.00,,,0.01,221,Wunderground v.1.15,2013-09-08 20:03:00,
2013-09-08 16:13:00,75.4,64.5,29.91,SSE,155,0.0,0.0,69,0.00,,,0.01,218,Wunderground v.1.15,2013-09-08 20:13:00,
2013-09-08 16:23:00,74.8,66.0,29.91,SSE,155,0.0,0.0,74,0.00,,,0.01,550,Wunderground v.1.15,2013-09-08 20:23:00,
2013-09-08 16:33:00,74.8,66.0,29.91,SSE,155,0.0,0.0,74,0.00,,,0.01,169,Wunderground v.1.15,2013-09-08 20:33:00,
2013-09-08 16:43:00,74.8,66.0,29.91,SSE,155,0.0,0.0,74,0.00,,,0.01,179,Wunderground v.1.15,2013-09-08 20:43:00,
2013-09-08 16:53:00,74.8,66.0,29.91,SSE,155,0.0,0.0,74,0.00,,,0.01,125,Wunderground v.1.15,2013-09-08 20:53:00,
2013-09-08 17:03:00,74.7,64.7,29.91,SSE,155,0.0,0.0,71,0.00,,,0.01,77,Wunderground v.1.15,2013-09-08 21:03:00,
2013-09-08 17:13:00,74.7,65.9,29.92,SSE,155,0.0,0.0,74,0.00,,,0.01,132,Wunderground v.1.15,2013-09-08 21:13:00,
2013-09-08 17:23:00,74.5,66.4,29.92,SSE,155,0.0,0.0,76,0.00,,,0.01,130,Wunderground v.1.15,2013-09-08 21:23:00,
2013-09-08 17:33:00,74.3,65.9,29.92,SSE,155,0.0,0.0,75,0.00,,,0.01,128,Wunderground v.1.15,2013-09-08 21:33:00,
2013-09-08 17:43:00,74.2,65.8,29.92,SSE,155,0.0,0.0,75,0.00,,,0.01,116,Wunderground v.1.15,2013-09-08 21:43:00,
2013-09-08 17:53:00,74.1,66.0,29.92,SSE,155,0.0,0.0,76,0.00,,,0.01,105,Wunderground v.1.15,2013-09-08 21:53:00,
2013-09-08 18:03:00,73.9,66.6,29.92,SSE,155,0.0,0.0,78,0.00,,,0.01,84,Wunderground v.1.15,2013-09-08 22:03:00,
2013-09-08 18:13:00,73.7,67.1,29.92,SSE,155,0.0,0.0,80,0.00,,,0.01,58,Wunderground v.1.15,2013-09-08 22:13:00,
2013-09-08 18:23:00,73.4,66.9,29.92,SSE,155,0.0,0.0,80,0.00,,,0.01,35,Wunderground v.1.15,2013-09-08 22:23:00,
2013-09-08 18:33:00,72.9,66.0,29.92,SSE,155,0.0,0.0,79,0.00,,,0.01,25,Wunderground v.1.15,2013-09-08 22:33:00,
2013-09-08 18:43:00,72.4,65.5,29.92,SSE,155,0.0,0.0,79,0.00,,,0.01,25,Wunderground v.1.15,2013-09-08 22:43:00,
2013-09-08 18:53:00,71.7,64.8,29.93,SSE,155,0.0,0.0,79,0.00,,,0.01,21,Wunderground v.1.15,2013-09-08 22:53:00,
2013-09-08 19:03:00,70.9,64.4,29.93,SSE,155,0.0,0.0,80,0.00,,,0.01,19,Wunderground v.1.15,2013-09-08 23:03:00,
2013-09-08 19:13:00,70.4,64.3,29.92,SSE,155,0.0,0.0,81,0.00,,,0.01,16,Wunderground v.1.15,2013-09-08 23:13:00,
2013-09-08 19:23:00,69.9,64.2,29.92,SSE,155,0.0,0.0,82,0.00,,,0.01,14,Wunderground v.1.15,2013-09-08 23:23:00,
2013-09-08 19:33:00,69.4,64.0,29.93,SSE,155,0.0,0.0,83,0.00,,,0.01,7,Wunderground v.1.15,2013-09-08 23:33:00,
2013-09-08 19:43:00,68.9,63.9,29.93,SSE,155,0.0,0.0,84,0.00,,,0.01,0,Wunderground v.1.15,2013-09-08 23:43:00,
2013-09-08 19:53:00,68.5,63.8,29.94,SSE,155,0.0,0.0,85,0.00,,,0.01,0,Wunderground v.1.15,2013-09-08 23:53:00,
2013-09-08 20:03:00,68.2,63.5,29.94,SSE,155,0.0,0.0,85,0.00,,,0.01,0,Wunderground v.1.15,2013-09-09 00:03:00,
2013-09-08 20:13:00,67.9,63.2,29.94,SSE,155,0.0,0.0,85,0.00,,,0.01,0,Wunderground v.1.15,2013-09-09 00:13:00,
2013-09-08 20:23:00,67.6,62.9,29.94,SSE,155,0.0,0.0,85,0.00,,,0.01,0,Wunderground v.1.15,2013-09-09 00:23:00,
2013-09-08 20:33:00,67.2,62.5,29.94,SSE,155,0.0,0.0,85,0.00,,,0.01,0,Wunderground v.1.15,2013-09-09 00:33:00,
2013-09-08 20:43:00,67.0,62.3,29.95,SSE,155,0.0,0.0,85,0.00,,,0.01,0,Wunderground v.1.15,2013-09-09 00:43:00,
2013-09-08 20:53:00,66.8,62.1,29.95,SSE,155,0.0,0.0,85,0.00,,,0.01,0,Wunderground v.1.15,2013-09-09 00:53:00,
2013-09-08 21:03:00,66.6,61.9,29.96,SSE,155,0.0,0.0,85,0.00,,,0.01,0,Wunderground v.1.15,2013-09-09 01:03:00,
2013-09-08 21:13:00,66.5,62.2,29.96,SSE,155,0.0,0.0,86,0.00,,,0.01,0,Wunderground v.1.15,2013-09-09 01:13:00,
2013-09-08 21:23:00,66.2,61.9,29.97,SSE,155,0.0,0.0,86,0.00,,,0.01,0,Wunderground v.1.15,2013-09-09 01:23:00,
2013-09-08 21:33:00,65.9,61.6,29.97,SSE,155,0.0,0.0,86,0.00,,,0.01,0,Wunderground v.1.15,2013-09-09 01:33:00,
2013-09-08 21:43:00,65.7,61.7,29.98,SSE,155,0.0,0.0,87,0.00,,,0.01,0,Wunderground v.1.15,2013-09-09 01:43:00,
2013-09-08 21:53:00,65.4,61.8,29.98,SSE,155,0.0,0.0,88,0.00,,,0.01,0,Wunderground v.1.15,2013-09-09 01:53:00,
2013-09-08 22:03:00,65.1,61.8,29.98,SSE,155,0.0,0.0,89,0.00,,,0.01,0,Wunderground v.1.15,2013-09-09 02:03:00,
2013-09-08 22:13:00,64.9,61.9,29.98,SSE,155,0.0,0.0,90,0.00,,,0.01,0,Wunderground v.1.15,2013-09-09 02:13:00,
2013-09-08 22:23:00,64.7,61.7,29.98,SSE,155,0.0,0.0,90,0.00,,,0.01,0,Wunderground v.1.15,2013-09-09 02:23:00,
2013-09-08 22:33:00,64.5,61.5,29.98,SSE,155,0.0,0.0,90,0.00,,,0.01,0,Wunderground v.1.15,2013-09-09 02:33:00,
2013-09-08 22:43:00,64.3,61.3,29.98,SSE,155,0.0,0.0,90,0.00,,,0.01,0,Wunderground v.1.15,2013-09-09 02:43:00,
2013-09-08 22:53:00,64.1,61.4,29.98,SSE,155,0.0,0.0,91,0.00,,,0.01,0,Wunderground v.1.15,2013-09-09 02:53:00,
2013-09-08 23:03:00,64.0,61.3,29.99,SSE,155,0.0,0.0,91,0.00,,,0.01,0,Wunderground v.1.15,2013-09-09 03:03:00,
2013-09-08 23:13:00,63.8,61.1,29.99,SSE,155,0.0,0.0,91,0.00,,,0.01,0,Wunderground v.1.15,2013-09-09 03:13:00,
2013-09-08 23:23:00,63.6,60.9,29.99,SSE,155,0.0,0.0,91,0.00,,,0.01,0,Wunderground v.1.15,2013-09-09 03:23:00,
2013-09-08 23:33:00,63.5,61.1,29.99,SSE,155,0.0,0.0,92,0.00,,,0.01,0,Wunderground v.1.15,2013-09-09 03:33:00,
2013-09-08 23:43:00,63.4,61.0,29.99,SSE,155,0.0,0.0,92,0.00,,,0.01,0,Wunderground v.1.15,2013-09-09 03:43:00,
2013-09-08 23:53:00,63.3,60.9,29.99,SSE,155,0.0,0.0,92,0.00,,,0.01,0,Wunderground v.1.15,2013-09-09 03:53:00,